Tuesday, December 18, 2018, 4:16 PM EST
Back to Local

KMQE, Milton Blue Hill Observ

Location: Milton, MA, United States Lat: 42.217
Local Time: 4:16 PM EST (21:16 GMT) Lon: -71.117
Time Zone: US/Eastern Elev: 629 ft

Show me the last for .
Show Coded

Time T Td Feel RH Dir Speed Gust Alt SLP Vis Weather Sky Remarks
2018-12-18 14:56 28 12 12 50 310° 17 31 29.86 29.91 0 Peak wind: 32 mph (28 kts) from 310° at 29 min
2018-12-18 13:56 29 11 12 46 320° 18 38 29.81 29.87 0 Peak wind: 43 mph (38 kts) from 320° at 28 min
2018-12-18 12:56 28 11 11 48 310° 23 38 29.80 29.85 0 Peak wind: 37 mph (33 kts) from 310° at 52 min
6-hr Min Temp (1pm): 19.9°F
6-hr Max Temp (1pm): 28.0°F
2018-12-18 11:56 26 11 7 52 320° 29 44 29.78 29.83 0 Peak wind: 43 mph (38 kts) from 310° at 51 min
2018-12-18 10:56 25 10 6 52 310° 22 38 29.79 29.83 0 Peak wind: 42 mph (37 kts) from 310° at 15 min
2018-12-18 09:56 24 10 4 54 320° 30 44 29.78 29.83 0 Peak wind: 43 mph (38 kts) from 310° at 55 min
2018-12-18 08:56 22 10 3 59 310° 22 35 29.76 29.81 0 Peak wind: 42 mph (37 kts) from 310° at 31 min
2018-12-18 07:56 21 11 1 64 310° 26 39 29.72 29.77 0 Peak wind: 40 mph (35 kts) from 310° at 16 min
2018-12-18 06:56 20 9 -1 61 300° 22 38 29.69 29.74 0 Peak wind: 46 mph (40 kts) from 320° at 02 min
6-hr Precip Total (7am): 0.02"
24-hr Precip Total (7am): 0.02"
6-hr Min Temp (7am): 19.9°F
6-hr Max Temp (7am): 34.0°F
2018-12-18 05:56 20 10 -1 64 300° 21 43 29.66 29.71 0 Peak wind: 55 mph (48 kts) from 310° at 06 min
2018-12-18 04:56 21 10 -1 61 310° 32 47 29.62 29.67 0 Peak wind: 50 mph (44 kts) from 310° at 23 min
2018-12-18 03:56 24 12 4 59 300° 28 46 29.60 29.65 0 Peak wind: 51 mph (45 kts) from 310° at 42 min
6-hr Precip Total (4am): 0.02"
2018-12-18 02:56 27 18 10 68 310° 18 35 29.57 29.62 0 Peak wind: 37 mph (33 kts) from 320° at 11 min
2018-12-18 01:56 27 25 11 92 300° 14 30 29.55 29.60 0 Peak wind: 40 mph (35 kts) from 290° at 14 min
1-hr Precip Total: 0.02"
2018-12-18 00:56 34 23 19 63 290° 20 36 29.50 29.55 0 Peak wind: 35 mph (31 kts) from 280° at 48 min
6-hr Min Temp (1am): 33.1°F
6-hr Max Temp (1am): 34.0°F
2018-12-17 23:56 34 26 22 72 280° 14 24 29.51 29.56 0 24-hr Min Temp (12am): 32.0°F
24-hr Max Temp (12am): 37.0°F
2018-12-17 22:56 34 28 22 78 280° 15 23 29.53 29.57 0 Peak wind: 29 mph (26 kts) from 280° at 07 min
2018-12-17 21:56 34 28 21 78 290° 18 26 29.53 29.58 0 Peak wind: 29 mph (26 kts) from 280° at 59 min
2018-12-17 20:56 33 28 20 81 280° 20 28 29.53 29.58 0 None
2018-12-17 19:56 33 27 21 77 290° 15 23 29.54 29.59 0 None
2018-12-17 18:56 34 29 21 81 300° 16 25 29.53 29.57 0 6-hr Min Temp (7pm): 34.0°F
6-hr Max Temp (7pm): 37.0°F
2018-12-17 17:56 35 30 22 81 290° 17 26 29.51 29.56 0 None
2018-12-17 16:56 36 31 25 81 290° 14 22 29.50 29.55 0 None

Support USWX by starting your Amazon purchase here.